Latest Weather Observations for Pound Creek

IDV60801

Issued at 1:22 pm EST Friday 24 May 2019 (issued every 10 minutes, with the page automatically refreshed every 10 minutes)

About weather observations | Map of weather stations | Latest weather observations for VIC | Other Formats
Station Details ID: 085099 Name: POUND CREEK Lat: -38.63 Lon: 145.81 Height: 3.0 m
Data from the previous 72 hours. | See also: Recent months at Pound Creek
Date/Time
EST
Temp
°C
App
Temp
°C
Dew
Point
°C
Rel
Hum
%
Delta-T
°C
Wind Press
QNH
hPa
Press
MSL
hPa
Rain since
9am
mm
Dir  Spd
km/h
Gust
km/h
Spd
kts
Gust
kts
24/01:00pm 16.7 14.2 11.2 70 3.0 N 15 22 8 12 1015.2 1015.2 0.2
24/12:30pm 16.6 14.2 11.3 71 2.9 N 15 28 8 15 1015.6 1015.6 0.2
24/12:00pm 16.4 13.9 10.9 70 2.9 N 15 24 8 13 1016.2 1016.2 0.2
24/11:30am 15.7 13.4 10.5 71 2.7 NW 13 22 7 12 1017.5 1017.5 0.2
24/11:00am 16.8 12.8 8.2 57 4.4 NNW 19 30 10 16 1017.7 1017.7 0.0
24/10:30am 17.4 13.6 7.5 52 5.0 NNW 17 28 9 15 1018.2 1018.2 0.0
24/10:00am 16.6 14.3 9.1 61 3.9 NW 11 20 6 11 1018.3 1018.3 0.0
24/09:30am 13.6 12.2 8.7 72 2.5 NW 6 11 3 6 1017.9 1017.9 0.0
24/09:00am 12.3 11.2 8.4 77 1.9 NW 4 6 2 3 1017.9 1017.9 0.8
24/08:30am 10.7 9.5 7.9 83 1.4 W 4 6 2 3 1017.9 1017.9 0.8
24/08:00am 10.4 9.7 6.9 79 1.6 CALM 0 2 0 1 1017.4 1017.4 0.8
24/07:30am 10.8 9.5 6.2 73 2.1 N 2 2 1 1 1017.3 1017.3 0.8
24/07:00am 11.4 10.5 5.9 69 2.6 CALM 0 2 0 1 1017.4 1017.4 0.8
24/06:30am 14.1 11.9 5.5 56 4.1 NW 6 13 3 7 1017.0 1017.0 0.8
24/06:00am 15.6 12.9 5.5 51 4.8 NW 9 15 5 8 1017.0 1017.0 0.8
24/05:30am 15.8 12.7 5.7 51 4.8 NW 11 19 6 10 1017.1 1017.1 0.8
24/05:00am 15.0 13.0 7.1 59 3.9 NNW 7 13 4 7 1017.1 1017.1 0.8
24/04:30am 12.9 11.5 7.4 69 2.7 NW 4 7 2 4 1017.5 1017.5 0.8
24/04:00am 13.4 12.1 9.1 75 2.2 NNW 6 9 3 5 1017.5 1017.5 0.8
24/03:30am 11.2 10.2 8.8 85 1.2 N 4 6 2 3 1017.6 1017.6 0.8
24/03:00am 11.9 10.5 8.9 82 1.5 E 6 7 3 4 1018.0 1018.0 0.8
24/02:30am 13.4 12.6 9.5 77 2.0 NW 4 6 2 3 1018.3 1018.3 0.8
24/02:00am 12.4 11.1 9.8 84 1.3 WSW 7 9 4 5 1018.3 1018.3 0.8
24/01:30am 13.4 13.2 8.9 74 2.3 CALM 0 2 0 1 1017.7 1017.7 0.8
24/01:00am 14.8 12.5 9.0 68 2.9 NNW 11 24 6 13 1017.8 1017.8 0.8
24/12:30am 15.4 14.5 9.1 66 3.2 WSW 4 9 2 5 1018.7 1018.7 0.0
24/12:00am 14.2 10.7 8.6 69 2.8 SW 17 30 9 16 1019.0 1019.0 0.0
 
Date/Time
EST
Temp
°C
App
Temp
°C
Dew
Point
°C
Rel
Hum
%
Delta-T
°C
Wind Press
QNH
hPa
Press
MSL
hPa
Rain since
9am
mm
Dir  Spd
km/h
Gust
km/h
Spd
kts
Gust
kts
23/11:30pm 13.6 11.3 7.4 66 3.0 N 9 13 5 7 1018.4 1018.4 0.0
23/11:00pm 10.7 9.1 6.3 74 2.0 NNE 4 6 2 3 1018.9 1018.9 0.0
23/10:30pm 10.7 9.0 6.1 73 2.1 N 4 4 2 2 1019.2 1019.2 0.0
23/10:00pm 11.4 9.5 6.5 72 2.3 NNE 6 9 3 5 1019.5 1019.5 0.0
23/09:30pm 12.0 10.1 6.5 69 2.6 N 6 6 3 3 1019.7 1019.7 0.0
23/09:00pm 14.1 12.2 6.7 61 3.6 N 6 7 3 4 1020.0 1020.0 0.0
23/08:30pm 14.8 12.8 6.9 59 3.9 N 7 11 4 6 1020.2 1020.2 0.0
23/08:00pm 15.5 13.1 6.8 56 4.2 N 9 13 5 7 1020.2 1020.2 0.0
23/07:30pm 16.4 14.0 7.1 54 4.6 N 9 15 5 8 1020.3 1020.3 0.0
23/07:00pm 16.6 13.6 7.5 55 4.5 NNW 13 19 7 10 1020.3 1020.3 0.0
23/06:30pm 15.9 13.3 7.9 59 4.0 N 11 15 6 8 1020.3 1020.3 0.0
23/06:00pm 15.4 13.2 7.9 61 3.7 N 9 13 5 7 1020.3 1020.3 0.0
23/05:30pm 16.4 14.2 7.9 57 4.3 N 9 13 5 7 1020.3 1020.3 0.0
23/05:00pm 17.8 14.9 8.1 53 4.9 N 13 19 7 10 1020.4 1020.4 0.0
23/04:30pm 19.0 16.2 8.6 51 5.4 N 13 22 7 12 1020.5 1020.5 0.0
23/04:00pm 20.2 17.6 9.2 49 5.8 N 13 20 7 11 1020.6 1020.6 0.0
23/03:30pm 20.8 17.8 9.1 47 6.2 N 15 28 8 15 1020.8 1020.8 0.0
23/03:00pm 21.3 19.3 10.2 49 6.0 N 11 20 6 11 1021.1 1021.1 0.0
23/02:30pm 21.2 18.0 10.1 49 6.0 NNW 17 32 9 17 1021.4 1021.4 0.0
23/02:00pm 21.0 17.7 9.6 48 6.1 NNW 17 28 9 15 1021.8 1021.8 0.0
23/01:30pm 20.5 17.2 9.4 49 5.9 NNW 17 30 9 16 1022.3 1022.3 0.0
23/01:00pm 20.3 17.2 8.9 48 6.0 NNW 15 26 8 14 1022.8 1022.8 0.0
23/12:30pm 19.9 16.5 9.2 50 5.7 N 17 24 9 13 1023.4 1023.4 0.0
23/12:00pm 19.9 17.0 9.5 51 5.5 N 15 24 8 13 1024.0 1024.0 0.0
23/11:30am 19.3 16.9 8.6 50 5.6 N 11 19 6 10 1024.6 1024.6 0.0
23/11:00am 18.4 17.5 10.8 61 4.1 N 6 9 3 5 1025.1 1025.1 0.0
23/10:30am 17.0 16.5 10.6 66 3.4 NNE 4 6 2 3 1025.7 1025.7 0.0
23/10:00am 15.2 14.2 8.9 66 3.2 NNE 4 6 2 3 1025.9 1025.9 0.0
23/09:30am 14.8 15.0 10.6 76 2.2 CALM 0 0 0 0 1026.1 1026.1 0.0
23/09:00am 11.4 11.2 9.0 85 1.2 CALM 0 0 0 0 1026.2 1026.2 0.2
23/08:30am 10.1 8.8 7.7 85 1.2 SSW 4 6 2 3 1026.2 1026.2 0.2
23/08:00am 9.9 7.9 7.2 83 1.3 NNE 7 11 4 6 1026.0 1026.0 0.2
23/07:30am 9.4 6.6 6.8 84 1.2 NNE 11 15 6 8 1025.8 1025.8 0.2
23/07:00am 9.5 6.3 6.9 84 1.2 NNE 13 19 7 10 1025.6 1025.6 0.2
23/06:30am 9.5 6.7 7.1 85 1.1 NNE 11 17 6 9 1025.5 1025.5 0.2
23/06:00am 9.6 6.5 7.2 85 1.1 NNE 13 17 7 9 1025.5 1025.5 0.2
23/05:30am 9.6 6.5 7.4 86 1.0 NNE 13 17 7 9 1025.4 1025.4 0.2
23/05:00am 9.5 6.9 7.6 88 0.9 NNE 11 17 6 9 1025.5 1025.5 0.2
23/04:30am 9.6 6.6 7.9 89 0.8 NNE 13 17 7 9 1025.6 1025.6 0.2
23/04:00am 9.2 6.9 7.6 90 0.8 NNE 9 13 5 7 1025.8 1025.8 0.0
23/03:30am 9.4 6.9 8.0 91 0.7 NNE 11 15 6 8 1026.1 1026.1 0.0
23/03:00am 9.4 6.9 8.3 93 0.5 NNE 11 15 6 8 1026.3 1026.3 0.0
23/02:30am 9.2 7.1 8.3 94 0.4 NNE 9 13 5 7 1026.4 1026.4 0.0
23/02:00am 7.3 5.8 6.6 95 0.3 NNE 4 6 2 3 1026.5 1026.5 0.0
23/01:30am 7.8 6.7 6.9 94 0.4 NNE 2 6 1 3 1026.7 1026.7 0.0
23/01:00am 8.5 7.2 7.6 94 0.4 NNE 4 6 2 3 1026.8 1026.8 0.0
23/12:30am 7.7 5.8 6.8 94 0.4 N 6 7 3 4 1027.0 1027.0 0.0
23/12:00am 8.7 6.5 7.8 94 0.4 NNE 9 13 5 7 1027.2 1027.2 0.0
 
Date/Time
EST
Temp
°C
App
Temp
°C
Dew
Point
°C
Rel
Hum
%
Delta-T
°C
Wind Press
QNH
hPa
Press
MSL
hPa
Rain since
9am
mm
Dir  Spd
km/h
Gust
km/h
Spd
kts
Gust
kts
22/11:30pm 8.7 7.1 7.9 95 0.4 NNE 6 13 3 7 1027.3 1027.3 0.0
22/11:00pm 8.9 7.7 8.1 95 0.4 NE 4 9 2 5 1027.6 1027.6 0.0
22/10:30pm 8.2 7.2 7.4 95 0.4 NNE 2 6 1 3 1027.8 1027.8 0.0
22/10:00pm 8.2 6.8 7.4 95 0.4 NE 4 6 2 3 1028.0 1028.0 0.0
22/09:30pm 7.7 6.6 6.8 94 0.4 N 2 6 1 3 1028.0 1028.0 0.0
22/09:00pm 8.9 7.7 8.0 94 0.4 N 4 7 2 4 1027.9 1027.9 0.0
22/08:30pm 8.9 7.3 8.0 94 0.4 NNE 6 9 3 5 1027.9 1027.9 0.0
22/08:00pm 9.3 7.8 8.4 94 0.4 NNE 6 9 3 5 1027.9 1027.9 0.0
22/07:30pm 8.4 6.6 7.3 93 0.5 N 6 6 3 3 1027.6 1027.6 0.0
22/07:00pm 8.9 8.4 7.7 92 0.6 CALM 0 2 0 1 1027.5 1027.5 0.0
22/06:30pm 9.8 9.1 8.4 91 0.7 N 2 2 1 1 1027.3 1027.3 0.0
22/06:00pm 11.3 10.9 9.6 89 0.9 ENE 2 6 1 3 1027.1 1027.1 0.0
22/05:30pm 12.4 12.5 10.0 85 1.2 CALM 0 0 0 0 1026.8 1026.8 0.0
22/05:00pm 14.1 13.2 10.7 80 1.8 WSW 6 6 3 3 1026.8 1026.8 0.0
22/04:30pm 15.8 14.8 11.0 73 2.6 WSW 7 11 4 6 1026.7 1026.7 0.0
22/04:00pm 16.9 14.6 10.5 66 3.4 WSW 13 17 7 9 1026.6 1026.6 0.0
22/03:30pm 17.7 15.3 10.1 61 4.0 WSW 13 19 7 10 1026.6 1026.6 0.0
22/03:00pm 18.1 15.7 10.0 59 4.3 WSW 13 19 7 10 1026.5 1026.5 0.0
22/02:30pm 18.4 16.0 10.0 58 4.5 WSW 13 19 7 10 1026.5 1026.5 0.0
22/02:00pm 18.8 17.1 11.1 61 4.2 W 11 15 6 8 1026.6 1026.6 0.0
22/01:30pm 18.6 16.4 10.7 60 4.3 WNW 13 19 7 10 1026.7 1026.7 0.0
22/01:00pm 18.4 15.9 11.0 62 4.0 WNW 15 22 8 12 1026.9 1026.9 0.0
22/12:30pm 18.2 14.9 11.0 63 3.9 WNW 19 24 10 13 1027.1 1027.1 0.0
22/12:00pm 18.0 15.1 10.9 63 3.8 WNW 17 22 9 12 1027.4 1027.4 0.0
22/11:30am 18.0 16.4 11.6 66 3.5 WNW 11 17 6 9 1027.6 1027.6 0.0
22/11:00am 17.5 15.5 11.5 68 3.2 NW 13 22 7 12 1027.8 1027.8 0.0
22/10:30am 17.1 15.8 11.4 69 3.1 NNW 9 19 5 10 1027.8 1027.8 0.0
22/10:00am 16.4 14.6 10.9 70 2.9 NNW 11 17 6 9 1027.7 1027.7 0.0
22/09:30am 15.7 14.3 10.9 73 2.6 NNW 9 17 5 9 1027.7 1027.7 0.0
22/09:00am 14.8 13.7 10.8 77 2.1 NNW 7 13 4 7 1027.7 1027.7 0.0
22/08:30am 12.7 11.8 10.8 88 1.0 N 6 9 3 5 1027.3 1027.3 0.0
22/08:00am 10.2 8.8 8.8 91 0.7 N 6 7 3 4 1027.3 1027.3 0.0
22/07:30am 9.2 7.6 7.8 91 0.7 N 6 7 3 4 1026.9 1026.9 0.0
22/07:00am 9.4 7.8 7.8 90 0.8 N 6 7 3 4 1026.5 1026.5 0.0
22/06:30am 9.8 8.2 8.1 89 0.8 N 6 6 3 3 1026.3 1026.3 0.0
22/06:00am 10.7 9.1 8.8 88 0.9 NNW 7 9 4 5 1026.0 1026.0 0.0
22/05:30am 11.1 9.6 9.2 88 0.9 NNW 7 11 4 6 1025.8 1025.8 0.0
22/05:00am 10.6 9.1 9.0 90 0.8 N 7 11 4 6 1025.6 1025.6 0.0
22/04:30am 9.8 8.0 8.1 89 0.8 NNW 7 9 4 5 1025.5 1025.5 0.0
22/04:00am 10.7 9.3 8.8 88 0.9 N 6 7 3 4 1025.5 1025.5 0.0
22/03:30am 10.9 9.4 9.0 88 0.9 N 7 9 4 5 1025.3 1025.3 0.0
22/03:00am 11.0 9.5 9.1 88 0.9 N 7 9 4 5 1025.3 1025.3 0.0
22/02:30am 10.8 9.4 8.7 87 1.0 N 6 9 3 5 1025.1 1025.1 0.0
22/02:00am 11.5 10.2 9.2 86 1.1 N 6 9 3 5 1025.0 1025.0 0.0
22/01:30am 11.8 10.4 9.4 85 1.2 N 7 9 4 5 1024.9 1024.9 0.0
22/01:00am 11.9 10.1 9.5 85 1.2 N 9 11 5 6 1024.9 1024.9 0.0
22/12:30am 12.6 10.9 9.8 83 1.4 N 9 13 5 7 1024.9 1024.9 0.0
22/12:00am 13.4 11.4 10.2 81 1.6 NNW 11 15 6 8 1024.7 1024.7 0.0
 
Date/Time
EST
Temp
°C
App
Temp
°C
Dew
Point
°C
Rel
Hum
%
Delta-T
°C
Wind Press
QNH
hPa
Press
MSL
hPa
Rain since
9am
mm
Dir  Spd
km/h
Gust
km/h
Spd
kts
Gust
kts
21/11:30pm 13.3 11.8 10.5 83 1.5 NNW 9 15 5 8 1024.7 1024.7 0.0
21/11:00pm 13.2 11.6 10.2 82 1.5 NNW 9 15 5 8 1024.7 1024.7 0.0
21/10:30pm 12.8 11.1 10.0 83 1.4 NNW 9 15 5 8 1024.6 1024.6 0.0
21/10:00pm 12.8 11.1 10.0 83 1.4 NNW 9 13 5 7 1024.7 1024.7 0.0
21/09:30pm 13.1 11.5 10.1 82 1.5 N 9 13 5 7 1024.6 1024.6 0.0
21/09:00pm 13.4 11.8 10.2 81 1.6 NNW 9 15 5 8 1024.4 1024.4 0.0
21/08:30pm 13.0 11.4 10.2 83 1.4 NNW 9 13 5 7 1024.1 1024.1 0.0
21/08:00pm 12.6 11.4 10.3 86 1.2 NNW 7 9 4 5 1023.9 1023.9 0.0
21/07:30pm 12.2 11.1 9.9 86 1.2 N 6 6 3 3 1023.7 1023.7 0.0
21/07:00pm 12.2 11.1 9.8 85 1.2 N 6 7 3 4 1023.4 1023.4 0.0
21/06:30pm 12.4 11.2 9.6 83 1.4 N 6 6 3 3 1023.1 1023.1 0.0
21/06:00pm 13.1 12.0 9.9 81 1.6 N 6 9 3 5 1022.9 1022.9 0.0
21/05:30pm 13.8 12.8 10.2 79 1.9 N 6 6 3 3 1022.7 1022.7 0.0
21/05:00pm 15.1 14.5 10.5 74 2.4 NNW 4 6 2 3 1022.6 1022.6 0.0
21/04:30pm 16.3 16.2 10.8 70 2.9 NW 2 4 1 2 1022.3 1022.3 0.0
21/04:00pm 16.5 15.6 10.6 68 3.1 NW 6 9 3 5 1022.1 1022.1 0.0
21/03:30pm 17.1 16.0 10.7 66 3.4 NW 7 13 4 7 1021.9 1021.9 0.0
21/03:00pm 17.6 15.8 10.7 64 3.7 NW 11 24 6 13 1021.7 1021.7 0.0
21/02:30pm 17.8 15.5 10.4 62 3.9 NW 13 22 7 12 1021.4 1021.4 0.0
21/02:00pm 18.2 15.2 10.8 62 4.0 NW 17 30 9 16 1021.4 1021.4 0.0
21/01:30pm 17.8 14.3 10.2 61 4.0 NW 19 32 10 17 1021.4 1021.4 0.0

Other formats

Comma delimited format used in spreadsheet applications
http://www.bom.gov.au/fwo/IDV60801/IDV60801.94886.axf

JavaScript Object Notation format (JSON) in row-major order
http://www.bom.gov.au/fwo/IDV60801/IDV60801.94886.json

Data quality

Most of these data are generated automatically and are frequently updated. Quality checks on data are not normally performed. It is possible for incorrect values to appear. Refer to information at About Latest Weather Observations and please check the disclaimer before using these data.